createdAt,value
2018-08-21T00:00:13.298Z,14.1
2018-08-21T00:01:15.403Z,14.1
2018-08-21T00:02:17.492Z,14.1
2018-08-21T00:03:19.886Z,14.1
2018-08-21T00:04:21.984Z,14.1
2018-08-21T00:05:24.077Z,14.1
2018-08-21T00:06:26.185Z,14.1
2018-08-21T00:07:28.583Z,14.1
2018-08-21T00:08:30.679Z,14.1
2018-08-21T00:09:33.154Z,14.2
2018-08-21T00:10:35.264Z,14.1
2018-08-21T00:11:37.736Z,14.2
2018-08-21T00:12:40.219Z,14.1
2018-08-21T00:13:43.105Z,14.2
2018-08-21T00:14:45.182Z,14.2
2018-08-21T00:15:47.293Z,14.1
2018-08-21T00:16:49.395Z,14.2
2018-08-21T00:17:51.498Z,14.3
2018-08-21T00:18:53.580Z,14.3
2018-08-21T00:19:55.679Z,14.2
2018-08-21T00:20:58.072Z,14.3
2018-08-21T00:22:00.170Z,14.2
2018-08-21T00:23:02.647Z,14.3
2018-08-21T00:24:05.069Z,14.3
2018-08-21T00:25:07.164Z,14.3
2018-08-21T00:26:09.250Z,14.3
2018-08-21T00:27:11.345Z,14.3
2018-08-21T00:28:13.449Z,14.2
2018-08-21T00:29:15.542Z,14.3
2018-08-21T00:30:17.646Z,14.2
2018-08-21T00:31:20.031Z,14.1
2018-08-21T00:32:22.114Z,14
2018-08-21T00:33:24.497Z,14
2018-08-21T00:34:26.599Z,13.9
2018-08-21T00:35:28.758Z,13.9
2018-08-21T00:36:30.859Z,13.9
2018-08-21T00:37:32.958Z,14
2018-08-21T00:38:35.047Z,14
2018-08-21T00:39:37.161Z,13.9
2018-08-21T00:40:39.250Z,13.9
2018-08-21T00:41:41.347Z,13.9
2018-08-21T00:42:43.438Z,13.9
2018-08-21T00:43:45.546Z,13.7
2018-08-21T00:44:47.628Z,13.8
2018-08-21T00:45:49.725Z,13.8
2018-08-21T00:46:51.822Z,13.7
2018-08-21T00:47:53.905Z,13.8
2018-08-21T00:48:56.009Z,13.6
2018-08-21T00:49:58.102Z,13.7
2018-08-21T00:51:00.202Z,13.6
2018-08-21T00:52:02.280Z,13.6
2018-08-21T00:53:04.388Z,13.5
2018-08-21T00:54:06.481Z,13.5
2018-08-21T00:55:08.572Z,13.5
2018-08-21T00:56:10.683Z,13.5
2018-08-21T00:57:13.057Z,13.5
2018-08-21T00:58:15.151Z,13.5
2018-08-21T00:59:17.250Z,13.4
2018-08-21T01:00:19.633Z,13.4
2018-08-21T01:01:21.720Z,13.4
2018-08-21T01:02:24.103Z,13.4
2018-08-21T01:03:26.194Z,13.4
2018-08-21T01:04:28.683Z,13.3
2018-08-21T01:05:30.792Z,13.3
2018-08-21T01:06:32.886Z,13.3
2018-08-21T01:07:34.979Z,13.3
2018-08-21T01:08:37.382Z,13.3
2018-08-21T01:09:39.475Z,13.2
2018-08-21T01:10:41.565Z,13.2
2018-08-21T01:11:43.666Z,13.2
2018-08-21T01:12:45.749Z,13.1
2018-08-21T01:13:47.850Z,13.1
2018-08-21T01:14:49.948Z,13.1
2018-08-21T01:15:52.051Z,13.1
2018-08-21T01:16:54.827Z,13.1
2018-08-21T01:17:56.932Z,13.1
2018-08-21T01:18:59.030Z,13
2018-08-21T01:20:01.120Z,13
2018-08-21T01:21:03.229Z,12.9
2018-08-21T01:22:05.310Z,12.9
2018-08-21T01:23:07.403Z,12.9
2018-08-21T01:24:09.491Z,12.9
2018-08-21T01:25:11.600Z,12.9
2018-08-21T01:26:14.069Z,12.9
2018-08-21T01:27:16.165Z,12.9
2018-08-21T01:28:18.266Z,12.9
2018-08-21T01:29:20.736Z,12.9
2018-08-21T01:30:23.231Z,12.9
2018-08-21T01:31:25.323Z,12.9
2018-08-21T01:32:27.412Z,12.9
2018-08-21T01:33:29.797Z,12.8
2018-08-21T01:34:31.905Z,12.8
2018-08-21T01:35:34.679Z,12.8
2018-08-21T01:36:36.817Z,12.7
2018-08-21T01:37:38.910Z,12.8
2018-08-21T01:38:41.015Z,12.7
2018-08-21T01:39:43.109Z,12.7
2018-08-21T01:40:45.193Z,12.6
2018-08-21T01:41:47.310Z,12.6
2018-08-21T01:42:49.400Z,12.6
2018-08-21T01:43:51.780Z,12.6
2018-08-21T01:44:54.171Z,12.7
2018-08-21T01:45:56.255Z,12.6
2018-08-21T01:46:58.354Z,12.6
2018-08-21T01:48:00.447Z,12.6
2018-08-21T01:49:02.864Z,12.6
2018-08-21T01:50:04.947Z,12.6
2018-08-21T01:51:07.048Z,12.6
2018-08-21T01:52:09.139Z,12.6
2018-08-21T01:53:11.614Z,12.5
2018-08-21T01:54:13.721Z,12.5
2018-08-21T01:55:15.802Z,12.5
2018-08-21T01:56:17.902Z,12.5
2018-08-21T01:57:19.996Z,12.4
2018-08-21T01:58:22.112Z,12.4
2018-08-21T01:59:24.592Z,12.4
2018-08-21T02:00:26.696Z,12.4
2018-08-21T02:01:29.085Z,12.3
2018-08-21T02:02:31.170Z,12.3
2018-08-21T02:03:33.272Z,12.3
2018-08-21T02:04:35.368Z,12.3
2018-08-21T02:05:37.456Z,12.3
2018-08-21T02:06:39.545Z,12.3
2018-08-21T02:07:41.650Z,12.3
2018-08-21T02:08:43.744Z,12.2
2018-08-21T02:09:45.845Z,12.2
2018-08-21T02:10:47.941Z,12.2
2018-08-21T02:11:50.024Z,12.2
2018-08-21T02:12:52.121Z,12.1
2018-08-21T02:13:54.213Z,12.1
2018-08-21T02:14:56.714Z,12.1
2018-08-21T02:15:58.806Z,12.1
2018-08-21T02:17:00.901Z,12.1
2018-08-21T02:18:03.000Z,12.1
2018-08-21T02:19:05.370Z,12.1
2018-08-21T02:20:07.467Z,12.1
2018-08-21T02:21:10.142Z,12.1
2018-08-21T02:22:12.238Z,12
2018-08-21T02:23:14.706Z,12
2018-08-21T02:24:16.812Z,12
2018-08-21T02:25:19.194Z,12
2018-08-21T02:26:21.279Z,12
2018-08-21T02:27:23.387Z,11.9
2018-08-21T02:28:25.765Z,11.9
2018-08-21T02:29:27.864Z,11.9
2018-08-21T02:30:30.340Z,11.8
2018-08-21T02:31:32.745Z,11.8
2018-08-21T02:32:35.406Z,11.9
2018-08-21T02:33:37.505Z,11.8
2018-08-21T02:34:39.896Z,11.8
2018-08-21T02:35:41.977Z,11.8
2018-08-21T02:36:44.080Z,11.7
2018-08-21T02:37:46.181Z,11.7
2018-08-21T02:38:48.654Z,11.7
2018-08-21T02:39:51.031Z,11.7
2018-08-21T02:40:53.136Z,11.6
2018-08-21T02:41:55.536Z,11.7
2018-08-21T02:42:57.639Z,11.7
2018-08-21T02:44:00.030Z,11.7
2018-08-21T02:45:02.116Z,11.7
2018-08-21T02:46:04.215Z,11.7
2018-08-21T02:47:06.633Z,11.7
2018-08-21T02:48:08.715Z,11.6
2018-08-21T02:49:10.816Z,11.6
2018-08-21T02:50:12.909Z,11.7
2018-08-21T02:51:15.010Z,11.7
2018-08-21T02:52:17.474Z,11.8
2018-08-21T02:53:19.578Z,11.7
2018-08-21T02:54:21.676Z,11.8
2018-08-21T02:55:24.072Z,11.8
2018-08-21T02:56:26.536Z,11.8
2018-08-21T02:57:28.639Z,11.7
2018-08-21T02:58:30.734Z,11.8
2018-08-21T02:59:32.821Z,11.8
2018-08-21T03:00:34.934Z,11.8
2018-08-21T03:01:37.022Z,11.8
2018-08-21T03:02:39.789Z,11.8
2018-08-21T03:03:42.181Z,11.8
2018-08-21T03:04:44.681Z,11.8
2018-08-21T03:05:46.768Z,11.8
2018-08-21T03:06:49.840Z,11.8
2018-08-21T03:07:51.945Z,11.8
2018-08-21T03:08:54.025Z,11.9
2018-08-21T03:09:56.135Z,11.9
2018-08-21T03:10:58.553Z,11.9
2018-08-21T03:12:01.714Z,11.9
2018-08-21T03:13:03.807Z,11.9
2018-08-21T03:14:05.919Z,11.9
2018-08-21T03:15:08.019Z,11.9
2018-08-21T03:16:10.125Z,11.9
2018-08-21T03:17:12.608Z,12
2018-08-21T03:18:14.696Z,12
2018-08-21T03:19:16.789Z,12
2018-08-21T03:20:18.893Z,12
2018-08-21T03:21:20.971Z,12.1
2018-08-21T03:22:23.080Z,12.1
2018-08-21T03:23:25.181Z,12.1
2018-08-21T03:24:27.271Z,12.1
2018-08-21T03:25:29.377Z,12.1
2018-08-21T03:26:31.467Z,12.1
2018-08-21T03:27:33.873Z,12.1
2018-08-21T03:28:35.962Z,12.2
2018-08-21T03:29:38.071Z,12.1
2018-08-21T03:30:40.544Z,12.2
2018-08-21T03:31:42.950Z,12.2
2018-08-21T03:32:45.055Z,12.2
2018-08-21T03:33:47.135Z,12.2
2018-08-21T03:34:49.246Z,12.3
2018-08-21T03:35:51.335Z,12.3
2018-08-21T03:36:53.434Z,12.3
2018-08-21T03:37:55.905Z,12.3
2018-08-21T03:38:58.301Z,12.3
2018-08-21T03:40:00.393Z,12.3
2018-08-21T03:41:02.771Z,12.4
2018-08-21T03:42:05.173Z,12.4
2018-08-21T03:43:07.646Z,12.4
2018-08-21T03:44:09.742Z,12.4
2018-08-21T03:45:11.846Z,12.4
2018-08-21T03:46:13.949Z,12.4
2018-08-21T03:47:16.371Z,12.4
2018-08-21T03:48:18.416Z,12.4
2018-08-21T03:49:20.515Z,12.4
2018-08-21T03:50:22.613Z,12.5
2018-08-21T03:51:24.714Z,12.5
2018-08-21T03:52:26.807Z,12.4
2018-08-21T03:53:28.894Z,12.4
2018-08-21T03:54:31.002Z,12.4
2018-08-21T03:55:33.096Z,12.4
2018-08-21T03:56:35.189Z,12.4
2018-08-21T03:57:37.290Z,12.5
2018-08-21T03:58:39.673Z,12.5
2018-08-21T03:59:42.061Z,12.5
2018-08-21T04:00:44.462Z,12.5
2018-08-21T04:01:46.856Z,12.4
2018-08-21T04:02:48.943Z,12.4
2018-08-21T04:03:51.331Z,12.4
2018-08-21T04:04:53.717Z,12.4
2018-08-21T04:05:55.805Z,12.4
2018-08-21T04:06:57.898Z,12.4
2018-08-21T04:08:00.005Z,12.4
2018-08-21T04:09:02.102Z,12.4
2018-08-21T04:10:04.202Z,12.4
2018-08-21T04:11:06.283Z,12.4
2018-08-21T04:12:08.386Z,12.4
2018-08-21T04:13:10.864Z,12.4
2018-08-21T04:14:12.949Z,12.4
2018-08-21T04:15:15.057Z,12.4
2018-08-21T04:16:17.139Z,12.4
2018-08-21T04:17:19.928Z,12.3
2018-08-21T04:18:22.026Z,12.4
2018-08-21T04:19:24.119Z,12.4
2018-08-21T04:20:26.211Z,12.3
2018-08-21T04:21:28.608Z,12.3
2018-08-21T04:22:30.697Z,12.3
2018-08-21T04:23:33.476Z,12.3
2018-08-21T04:24:38.067Z,12.3
2018-08-21T04:25:40.104Z,12.3
2018-08-21T04:26:42.178Z,12.3
2018-08-21T04:27:44.288Z,12.3
2018-08-21T04:28:46.376Z,12.3
2018-08-21T04:29:48.466Z,12.3
2018-08-21T04:30:50.858Z,12.3
2018-08-21T04:31:53.230Z,12.3
2018-08-21T04:32:55.335Z,12.3
2018-08-21T04:33:57.428Z,12.4
2018-08-21T04:34:59.537Z,12.4
2018-08-21T04:36:01.617Z,12.4
2018-08-21T04:37:03.729Z,12.4
2018-08-21T04:38:05.872Z,12.4
2018-08-21T04:39:07.919Z,12.4
2018-08-21T04:40:10.035Z,12.5
2018-08-21T04:41:12.427Z,12.5
2018-08-21T04:42:14.522Z,12.6
2018-08-21T04:43:16.612Z,12.5
2018-08-21T04:44:18.735Z,12.5
2018-08-21T04:45:21.110Z,12.5
2018-08-21T04:46:23.365Z,12.5
2018-08-21T04:47:25.304Z,12.5
2018-08-21T04:48:27.382Z,12.6
2018-08-21T04:49:29.875Z,12.5
2018-08-21T04:50:31.963Z,12.5
2018-08-21T04:51:34.049Z,12.5
2018-08-21T04:52:36.539Z,12.5
2018-08-21T04:53:38.657Z,12.6
2018-08-21T04:54:41.441Z,12.6
2018-08-21T04:55:43.551Z,12.8
2018-08-21T04:56:45.655Z,12.7
2018-08-21T04:57:47.738Z,12.8
2018-08-21T04:58:50.360Z,12.7
2018-08-21T04:59:52.808Z,12.7
2018-08-21T05:00:54.889Z,12.7
2018-08-21T05:01:56.989Z,12.7
2018-08-21T05:02:59.084Z,12.7
2018-08-21T05:04:01.176Z,12.7
2018-08-21T05:05:03.671Z,12.7
2018-08-21T05:06:06.638Z,12.7
2018-08-21T05:07:08.734Z,12.8
2018-08-21T05:08:11.413Z,12.8
2018-08-21T05:09:13.518Z,12.8
2018-08-21T05:10:15.602Z,12.8
2018-08-21T05:11:17.694Z,12.8
2018-08-21T05:12:20.084Z,12.8
2018-08-21T05:13:22.163Z,12.8
2018-08-21T05:14:24.265Z,12.8
2018-08-21T05:15:26.748Z,12.8
2018-08-21T05:16:28.844Z,12.8
2018-08-21T05:17:30.928Z,12.8
2018-08-21T05:18:33.039Z,12.8
2018-08-21T05:19:35.132Z,12.8
2018-08-21T05:20:37.607Z,12.8
2018-08-21T05:21:39.720Z,12.8
2018-08-21T05:22:41.810Z,12.9
2018-08-21T05:23:44.227Z,12.9
2018-08-21T05:24:46.598Z,12.9
2018-08-21T05:25:49.086Z,12.9
2018-08-21T05:26:51.188Z,12.9
2018-08-21T05:27:53.280Z,12.9
2018-08-21T05:28:55.380Z,13
2018-08-21T05:29:58.176Z,13
2018-08-21T05:31:00.261Z,13.1
2018-08-21T05:32:02.353Z,13.1
2018-08-21T05:33:04.854Z,13.1
2018-08-21T05:34:06.935Z,13.1
2018-08-21T05:35:09.040Z,13.1
2018-08-21T05:36:11.138Z,13.1
2018-08-21T05:37:13.620Z,13.1
2018-08-21T05:38:16.024Z,13.2
2018-08-21T05:39:18.113Z,13.3
2018-08-21T05:40:20.210Z,13.3
2018-08-21T05:41:22.683Z,13.3
2018-08-21T05:42:25.184Z,13.4
2018-08-21T05:43:27.573Z,13.4
2018-08-21T05:44:29.675Z,13.4
2018-08-21T05:45:31.772Z,13.4
2018-08-21T05:46:33.909Z,13.4
2018-08-21T05:47:36.068Z,13.4
2018-08-21T05:48:38.163Z,13.5
2018-08-21T05:49:40.266Z,13.5
2018-08-21T05:50:42.646Z,13.5
2018-08-21T05:51:44.754Z,13.6
2018-08-21T05:52:46.846Z,13.6
2018-08-21T05:53:48.932Z,13.7
2018-08-21T05:54:51.040Z,13.7
2018-08-21T05:55:53.538Z,13.7
2018-08-21T05:56:55.635Z,13.7
2018-08-21T05:57:57.743Z,13.8
2018-08-21T05:58:59.839Z,13.8
2018-08-21T06:00:02.223Z,13.8
2018-08-21T06:01:04.709Z,13.9
2018-08-21T06:02:06.799Z,13.9
2018-08-21T06:03:09.184Z,13.9
2018-08-21T06:04:11.677Z,14
2018-08-21T06:05:13.769Z,14
2018-08-21T06:06:15.853Z,14.1
2018-08-21T06:07:17.962Z,14.1
2018-08-21T06:08:20.053Z,14.2
2018-08-21T06:09:22.148Z,14.3
2018-08-21T06:10:24.250Z,14.3
2018-08-21T06:11:27.015Z,14.3
2018-08-21T06:12:29.115Z,14.4
2018-08-21T06:13:31.216Z,14.4
2018-08-21T06:14:33.323Z,14.5
2018-08-21T06:15:35.403Z,14.5
2018-08-21T06:16:37.512Z,14.6
2018-08-21T06:17:39.612Z,14.6
2018-08-21T06:18:41.996Z,14.7
2018-08-21T06:19:44.098Z,14.7
2018-08-21T06:20:46.185Z,14.8
2018-08-21T06:21:48.281Z,14.8
2018-08-21T06:22:50.369Z,14.9
2018-08-21T06:23:52.487Z,14.9
2018-08-21T06:24:55.211Z,15
2018-08-21T06:25:57.269Z,15.1
2018-08-21T06:26:59.375Z,15.2
2018-08-21T06:28:01.458Z,15.2
2018-08-21T06:29:03.568Z,15.3
2018-08-21T06:30:05.665Z,15.4
2018-08-21T06:31:07.756Z,15.4
2018-08-21T06:32:10.148Z,15.5
2018-08-21T06:33:12.255Z,15.5
2018-08-21T06:34:14.347Z,15.5
2018-08-21T06:35:16.455Z,15.6
2018-08-21T06:36:18.570Z,15.6
2018-08-21T06:37:20.634Z,15.7
2018-08-21T06:38:22.739Z,15.7
2018-08-21T06:39:24.830Z,15.8
2018-08-21T06:40:26.937Z,15.9
2018-08-21T06:41:29.035Z,16
2018-08-21T06:42:31.131Z,16
2018-08-21T06:43:33.237Z,16.1
2018-08-21T06:44:35.322Z,16.1
2018-08-21T06:45:37.428Z,16.3
2018-08-21T06:46:40.169Z,16.4
2018-08-21T06:47:42.170Z,16.4
2018-08-21T06:48:44.252Z,16.5
2018-08-21T06:49:46.675Z,16.6
2018-08-21T06:50:48.777Z,16.7
2018-08-21T06:51:50.870Z,16.8
2018-08-21T06:52:52.996Z,16.8
2018-08-21T06:53:55.072Z,16.9
2018-08-21T06:54:57.166Z,16.9
2018-08-21T06:55:59.261Z,17
2018-08-21T06:57:01.669Z,17
2018-08-21T06:58:03.755Z,17.1
2018-08-21T06:59:05.860Z,17.1
2018-08-21T07:00:08.011Z,17.1
2018-08-21T07:01:10.060Z,17.2
2018-08-21T07:02:12.178Z,17.3
2018-08-21T07:03:14.274Z,17.3
2018-08-21T07:04:16.367Z,17.4
2018-08-21T07:05:18.465Z,17.3
2018-08-21T07:06:20.575Z,17.4
2018-08-21T07:07:22.676Z,17.5
2018-08-21T07:08:24.788Z,17.6
2018-08-21T07:09:27.565Z,17.7
2018-08-21T07:10:29.659Z,17.8
2018-08-21T07:11:32.343Z,17.9
2018-08-21T07:12:34.747Z,17.9
2018-08-21T07:13:36.836Z,17.9
2018-08-21T07:14:38.943Z,17.9
2018-08-21T07:15:41.630Z,17.9
2018-08-21T07:16:43.736Z,18
2018-08-21T07:17:45.827Z,18.1
2018-08-21T07:18:48.329Z,18.1
2018-08-21T07:19:50.425Z,18.2
2018-08-21T07:20:52.534Z,18.2
2018-08-21T07:21:54.917Z,18.3
2018-08-21T07:22:57.026Z,18.2
2018-08-21T07:23:59.126Z,18.3
2018-08-21T07:25:01.221Z,18.4
2018-08-21T07:26:03.350Z,18.5
2018-08-21T07:27:05.442Z,18.6
2018-08-21T07:28:07.545Z,18.6
2018-08-21T07:29:09.692Z,18.7
2018-08-21T07:30:12.138Z,18.5
2018-08-21T07:31:14.541Z,18.4
2018-08-21T07:32:16.951Z,18.5
2018-08-21T07:33:19.055Z,18.4
2018-08-21T07:34:21.145Z,18.4
2018-08-21T07:35:23.320Z,18.5
2018-08-21T07:36:25.765Z,18.6
2018-08-21T07:37:28.251Z,18.5
2018-08-21T07:38:30.351Z,18.6
2018-08-21T07:39:32.461Z,18.7
2018-08-21T07:40:34.559Z,18.7
2018-08-21T07:41:36.681Z,18.5
2018-08-21T07:42:38.786Z,18.6
2018-08-21T07:43:40.878Z,18.7
2018-08-21T07:44:42.982Z,18.9
2018-08-21T07:45:45.091Z,18.8
2018-08-21T07:46:47.574Z,18.7
2018-08-21T07:47:51.204Z,18.9
2018-08-21T07:48:54.289Z,19
2018-08-21T07:49:56.451Z,19
2018-08-21T07:50:58.857Z,18.9
2018-08-21T07:52:01.363Z,18.9
2018-08-21T07:53:03.491Z,18.9
2018-08-21T07:54:05.592Z,19
2018-08-21T07:55:08.065Z,18.8
2018-08-21T07:56:10.858Z,19
2018-08-21T07:57:12.963Z,19.1
2018-08-21T07:58:15.061Z,19.3
2018-08-21T07:59:17.182Z,19.3
2018-08-21T08:00:19.264Z,19.2
2018-08-21T08:01:21.652Z,19.3
2018-08-21T08:02:23.750Z,19.4
2018-08-21T08:03:25.871Z,19.4
2018-08-21T08:04:27.964Z,19.5
2018-08-21T08:05:30.072Z,19.4
2018-08-21T08:06:32.179Z,19.5
2018-08-21T08:07:34.268Z,19.6
2018-08-21T08:08:36.700Z,19.8
2018-08-21T08:09:39.194Z,19.8
2018-08-21T08:10:41.292Z,19.7
2018-08-21T08:11:43.401Z,19.9
2018-08-21T08:12:45.520Z,20
2018-08-21T08:13:47.753Z,20.1
2018-08-21T08:14:49.766Z,19.9
2018-08-21T08:15:52.162Z,19.7
2018-08-21T08:16:54.549Z,19.9
2018-08-21T08:17:56.947Z,20.1
2018-08-21T08:18:59.073Z,20.1
2018-08-21T08:20:01.520Z,20.1
2018-08-21T08:21:03.593Z,20.3
2018-08-21T08:22:05.699Z,20.4
2018-08-21T08:23:08.904Z,20.6
2018-08-21T08:24:11.616Z,20.8
2018-08-21T08:25:14.460Z,20.8
2018-08-21T08:26:16.579Z,20.8
2018-08-21T08:27:18.674Z,20.8
2018-08-21T08:28:20.794Z,21.2
2018-08-21T08:29:23.179Z,21.4
2018-08-21T08:30:25.286Z,21.4
2018-08-21T08:31:27.689Z,21.5
2018-08-21T08:32:29.783Z,21.1
2018-08-21T08:33:31.902Z,20.9
2018-08-21T08:34:34.005Z,20.7
2018-08-21T08:35:36.121Z,21
2018-08-21T08:36:38.599Z,21
2018-08-21T08:37:40.716Z,21.1
2018-08-21T08:38:43.203Z,21.1
2018-08-21T08:39:45.304Z,21
2018-08-21T08:40:47.819Z,20.9
2018-08-21T08:41:49.968Z,20.6
2018-08-21T08:42:52.700Z,20.3
2018-08-21T08:43:54.811Z,20.5
2018-08-21T08:44:56.926Z,20.7
2018-08-21T08:45:59.026Z,21.1
2018-08-21T08:47:04.145Z,20.6
2018-08-21T08:48:14.076Z,20.6
2018-08-21T08:49:18.379Z,20.5
2018-08-21T08:50:31.794Z,20.5
2018-08-21T08:51:37.678Z,20.4
2018-08-21T08:52:44.279Z,20.4
2018-08-21T08:53:51.664Z,20.5
2018-08-21T08:54:58.673Z,20.6
2018-08-21T08:56:14.215Z,20.5
2018-08-21T08:57:22.611Z,20.4
2018-08-21T08:58:30.333Z,20.4
2018-08-21T08:59:40.586Z,20.5
2018-08-21T09:00:47.304Z,20.6
2018-08-21T09:01:51.505Z,20.7
2018-08-21T09:02:53.690Z,20.6
2018-08-21T09:03:55.803Z,20.5
2018-08-21T09:04:57.993Z,20.7
2018-08-21T09:06:00.014Z,20.8
2018-08-21T09:07:02.137Z,21
2018-08-21T09:08:04.234Z,20.9
2018-08-21T09:09:06.913Z,20.4
2018-08-21T09:10:09.013Z,20.2
2018-08-21T09:11:11.424Z,20.5
2018-08-21T09:12:13.815Z,20.7
2018-08-21T09:13:15.920Z,20.7
2018-08-21T09:14:18.307Z,20.6
2018-08-21T09:15:20.458Z,20.7
2018-08-21T09:16:23.451Z,20.7
2018-08-21T09:17:25.601Z,20.5
2018-08-21T09:18:28.059Z,20.5
2018-08-21T09:19:30.471Z,20.6
2018-08-21T09:20:32.870Z,20.5
2018-08-21T09:21:35.269Z,20.6
2018-08-21T09:22:37.368Z,20.7
2018-08-21T09:23:39.474Z,21.1
2018-08-21T09:24:41.742Z,21.2
2018-08-21T09:25:43.843Z,20.9
2018-08-21T09:26:45.939Z,21
2018-08-21T09:27:48.446Z,21.1
2018-08-21T09:28:50.548Z,21
2018-08-21T09:29:52.648Z,21.3
2018-08-21T09:30:54.762Z,21.5
2018-08-21T09:31:56.851Z,21.6
2018-08-21T09:32:59.355Z,21.6
2018-08-21T09:34:01.457Z,22.1
2018-08-21T09:35:03.579Z,22.2
2018-08-21T09:36:05.680Z,22.4
2018-08-21T09:37:07.823Z,22.7
2018-08-21T09:38:10.004Z,22.2
2018-08-21T09:39:12.010Z,22.1
2018-08-21T09:40:14.524Z,21.7
2018-08-21T09:41:16.622Z,21.6
2018-08-21T09:42:18.730Z,21.7
2018-08-21T09:43:21.427Z,21.5
2018-08-21T09:44:24.159Z,21.9
2018-08-21T09:45:26.257Z,22
2018-08-21T09:46:28.762Z,22.2
2018-08-21T09:47:30.875Z,21.9
2018-08-21T09:48:32.971Z,21.7
2018-08-21T09:49:35.083Z,22.1
2018-08-21T09:50:37.192Z,21.8
2018-08-21T09:51:39.359Z,21.8
2018-08-21T09:52:41.416Z,21.5
2018-08-21T09:53:43.520Z,21.6
2018-08-21T09:54:45.641Z,21.6
2018-08-21T09:55:47.745Z,21.9
2018-08-21T09:56:49.858Z,22.3
2018-08-21T09:57:52.298Z,22.5
2018-08-21T09:58:54.800Z,22.7
2018-08-21T09:59:56.905Z,22.9
2018-08-21T10:00:59.037Z,22.5
2018-08-21T10:02:01.193Z,22.3
2018-08-21T10:03:03.246Z,22.4
2018-08-21T10:04:05.362Z,22.2
2018-08-21T10:05:08.156Z,22.2
2018-08-21T10:06:10.485Z,22.2
2018-08-21T10:07:12.641Z,22.1
2018-08-21T10:08:15.055Z,21.8
2018-08-21T10:09:17.150Z,21.8
2018-08-21T10:10:19.667Z,22.1
2018-08-21T10:11:22.066Z,22
2018-08-21T10:12:24.172Z,22.3
2018-08-21T10:13:26.352Z,22.4
2018-08-21T10:14:28.689Z,22.3
2018-08-21T10:15:30.798Z,22.4
2018-08-21T10:16:32.903Z,22.2
2018-08-21T10:17:35.315Z,21.8
2018-08-21T10:18:37.418Z,21.5
2018-08-21T10:19:39.526Z,21.8
2018-08-21T10:20:41.640Z,21.8
2018-08-21T10:21:43.734Z,22.1
2018-08-21T10:22:45.856Z,22.2
2018-08-21T10:23:47.967Z,21.9
2018-08-21T10:24:50.069Z,21.9
2018-08-21T10:25:52.199Z,21.6
2018-08-21T10:26:54.327Z,21.5
2018-08-21T10:27:56.444Z,21.4
2018-08-21T10:28:58.554Z,21.6
2018-08-21T10:30:01.065Z,22
2018-08-21T10:31:03.187Z,22
2018-08-21T10:32:05.303Z,22.1
2018-08-21T10:33:07.410Z,22.4
2018-08-21T10:34:09.536Z,22.7
2018-08-21T10:35:11.646Z,23
2018-08-21T10:36:13.754Z,23.1
2018-08-21T10:37:15.871Z,23.3
2018-08-21T10:38:17.968Z,23.2
2018-08-21T10:39:20.082Z,23.4
2018-08-21T10:40:22.191Z,23.4
2018-08-21T10:41:24.309Z,23.4
2018-08-21T10:42:26.797Z,22.9
2018-08-21T10:43:28.926Z,23.1
2018-08-21T10:44:31.030Z,22.5
2018-08-21T10:45:33.132Z,22.4
2018-08-21T10:46:35.260Z,22.6
2018-08-21T10:47:37.946Z,22.6
2018-08-21T10:48:40.066Z,22.4
2018-08-21T10:49:42.173Z,22.3
2018-08-21T10:50:44.298Z,21.9
2018-08-21T10:51:46.536Z,21.7
2018-08-21T10:52:48.801Z,21.5
2018-08-21T10:53:50.924Z,22
2018-08-21T10:54:53.011Z,22.2
2018-08-21T10:55:55.135Z,22.1
2018-08-21T10:56:57.246Z,21.9
2018-08-21T10:57:59.351Z,21.8
2018-08-21T10:59:01.853Z,22.1
2018-08-21T11:00:04.287Z,21.9
2018-08-21T11:01:06.402Z,22
2018-08-21T11:02:08.883Z,21.9
2018-08-21T11:03:10.935Z,21.9
2018-08-21T11:04:13.037Z,22.2
2018-08-21T11:05:15.439Z,22.5
2018-08-21T11:06:17.563Z,23
2018-08-21T11:07:19.662Z,23.3
2018-08-21T11:08:21.778Z,22.9
2018-08-21T11:09:24.181Z,23
2018-08-21T11:10:26.296Z,23.3
2018-08-21T11:11:28.412Z,23.4
2018-08-21T11:12:30.937Z,23.9
2018-08-21T11:13:33.000Z,23.9
2018-08-21T11:14:35.105Z,23.6
2018-08-21T11:15:37.238Z,23.4
2018-08-21T11:16:39.637Z,23.1
2018-08-21T11:17:42.043Z,22.9
2018-08-21T11:18:44.160Z,22.8
2018-08-21T11:19:46.646Z,23.2
2018-08-21T11:20:48.768Z,23.3
2018-08-21T11:21:50.886Z,23.4
2018-08-21T11:22:53.003Z,23.5
2018-08-21T11:23:56.100Z,23.4
2018-08-21T11:24:58.585Z,23
2018-08-21T11:26:00.692Z,22.5
2018-08-21T11:27:02.823Z,22.6
2018-08-21T11:28:04.947Z,22.5
2018-08-21T11:29:07.049Z,22.1
2018-08-21T11:30:09.163Z,22.2
2018-08-21T11:31:11.287Z,22.3
2018-08-21T11:32:13.397Z,22.4
2018-08-21T11:33:15.501Z,22.7
2018-08-21T11:34:17.619Z,23.5
2018-08-21T11:35:19.725Z,23.6
2018-08-21T11:36:21.837Z,24.1
2018-08-21T11:37:23.956Z,24.2
2018-08-21T11:38:26.068Z,24.3
2018-08-21T11:39:28.174Z,24.2
2018-08-21T11:40:30.304Z,24.3
2018-08-21T11:41:32.411Z,24
2018-08-21T11:42:34.523Z,24
2018-08-21T11:43:36.630Z,24
2018-08-21T11:44:38.762Z,24.5
2018-08-21T11:45:41.506Z,24.4
2018-08-21T11:46:43.932Z,24.5
2018-08-21T11:47:46.042Z,24
2018-08-21T11:48:48.167Z,23.7
2018-08-21T11:49:50.278Z,23.5
2018-08-21T11:50:52.390Z,23.9
2018-08-21T11:51:54.514Z,24.3
2018-08-21T11:52:56.905Z,24.2
2018-08-21T11:53:59.351Z,23.8
2018-08-21T11:55:01.763Z,24.1
2018-08-21T11:56:03.885Z,24.2
2018-08-21T11:57:06.917Z,23.7
2018-08-21T11:58:09.250Z,23.3
2018-08-21T11:59:11.358Z,23.4
2018-08-21T12:00:13.466Z,23.1
2018-08-21T12:01:15.593Z,23.3
2018-08-21T12:02:17.995Z,23.8
2018-08-21T12:03:20.116Z,24.4
2018-08-21T12:04:22.537Z,24.6
2018-08-21T12:05:24.947Z,24.2
2018-08-21T12:06:27.049Z,24.1
2018-08-21T12:07:29.170Z,23.7
2018-08-21T12:08:31.276Z,24.1
2018-08-21T12:09:33.677Z,24
2018-08-21T12:10:35.803Z,24.1
2018-08-21T12:11:37.913Z,24.4
2018-08-21T12:12:40.015Z,24.3
2018-08-21T12:13:42.157Z,24.3
2018-08-21T12:14:44.312Z,24.6
2018-08-21T12:15:46.835Z,24.7
2018-08-21T12:16:48.959Z,25.2
2018-08-21T12:17:51.355Z,26
2018-08-21T12:18:53.477Z,25.8
2018-08-21T12:19:55.884Z,25.6
2018-08-21T12:20:58.015Z,26.2
2018-08-21T12:22:00.130Z,25.9
2018-08-21T12:23:02.533Z,26.2
2018-08-21T12:24:04.650Z,25.4
2018-08-21T12:25:06.777Z,25.1
2018-08-21T12:26:08.883Z,25.2
2018-08-21T12:27:11.303Z,25.9
2018-08-21T12:28:13.424Z,25.8
2018-08-21T12:29:15.870Z,25.8
2018-08-21T12:30:17.975Z,26.1
2018-08-21T12:31:20.103Z,25.9
2018-08-21T12:32:22.215Z,25.8
2018-08-21T12:33:24.633Z,25.8
2018-08-21T12:34:26.765Z,25.4
2018-08-21T12:35:29.167Z,25.5
2018-08-21T12:36:31.282Z,25
2018-08-21T12:37:33.412Z,25.3
2018-08-21T12:38:35.830Z,26.2
2018-08-21T12:39:37.936Z,26.3
2018-08-21T12:40:40.057Z,26.3
2018-08-21T12:41:42.170Z,26.1
2018-08-21T12:42:44.289Z,25.4
2018-08-21T12:43:46.419Z,25.6
2018-08-21T12:44:48.538Z,25.5
2018-08-21T12:45:51.032Z,25.3
2018-08-21T12:46:53.170Z,25.4
2018-08-21T12:47:55.290Z,24.7
2018-08-21T12:48:57.715Z,24.7
2018-08-21T12:49:59.837Z,24.8
2018-08-21T12:51:01.942Z,25.2
2018-08-21T12:52:04.067Z,25.2
2018-08-21T12:53:06.188Z,25.3
2018-08-21T12:54:08.315Z,25.3
2018-08-21T12:55:10.720Z,25.8
2018-08-21T12:56:12.842Z,26
2018-08-21T12:57:14.963Z,25.9
2018-08-21T12:58:17.077Z,26.4
2018-08-21T12:59:19.191Z,26
2018-08-21T13:00:21.324Z,26.2
2018-08-21T13:01:23.443Z,25.8
2018-08-21T13:02:25.569Z,25.6
2018-08-21T13:03:28.269Z,25.6
2018-08-21T13:04:30.398Z,25.5
2018-08-21T13:05:32.517Z,25
2018-08-21T13:06:34.628Z,25
2018-08-21T13:07:36.761Z,25.1
2018-08-21T13:08:38.860Z,25.4
2018-08-21T13:09:40.980Z,25.5
2018-08-21T13:10:43.107Z,25.3
2018-08-21T13:11:45.228Z,25.5
2018-08-21T13:12:47.335Z,25.1
2018-08-21T13:13:49.847Z,24.9
2018-08-21T13:14:52.351Z,25.2
2018-08-21T13:15:54.518Z,25.1
2018-08-21T13:16:57.004Z,25.1
2018-08-21T13:17:59.410Z,25
2018-08-21T13:19:01.523Z,25.1
2018-08-21T13:20:03.966Z,25.3
2018-08-21T13:21:06.081Z,25.2
2018-08-21T13:22:08.195Z,24.9
2018-08-21T13:23:10.626Z,24.9
2018-08-21T13:24:12.732Z,25.3
2018-08-21T13:25:14.857Z,26
2018-08-21T13:26:16.980Z,26.2
2018-08-21T13:27:19.117Z,25.8
2018-08-21T13:28:21.217Z,25.3
2018-08-21T13:29:23.389Z,25.8
2018-08-21T13:30:25.473Z,26.4
2018-08-21T13:31:27.585Z,26.5
2018-08-21T13:32:29.722Z,25.5
2018-08-21T13:33:32.219Z,25.6
2018-08-21T13:34:34.337Z,26.5
2018-08-21T13:35:36.470Z,26.1
2018-08-21T13:36:38.632Z,26.5
2018-08-21T13:37:40.727Z,26.3
2018-08-21T13:38:43.975Z,25.5
2018-08-21T13:39:46.880Z,25.9
2018-08-21T13:40:48.997Z,25.6
2018-08-21T13:41:51.890Z,25.4
2018-08-21T13:42:54.256Z,25.5
2018-08-21T13:43:57.123Z,25.5
2018-08-21T13:44:59.247Z,25.5
2018-08-21T13:46:01.384Z,25.2
2018-08-21T13:47:03.792Z,25.7
2018-08-21T13:48:06.309Z,25.7
2018-08-21T13:49:09.038Z,25.8
2018-08-21T13:50:11.536Z,25.2
2018-08-21T13:51:13.656Z,25.3
2018-08-21T13:52:15.794Z,25.6
2018-08-21T13:53:17.905Z,26.3